<?xml version="1.0" encoding="UTF-8" standalone="no" ?>
<gpx xmlns="http://www.topografix.com/GPX/1/1" xmlns:xsi="http://www.w3.org/2001/XMLSchema-instance" xsi:schemaLocation="http://www.topografix.com/GPX/1/1 http://www.topografix.com/GPX/1/1/gpx.xsd" version="1.1" creator="VisuGPX - https://www.visugpx.com">
  <metadata>
    <name>Etangs de bievre</name>
    <desc><![CDATA[Rando en boucle depuis Versailles]]></desc>
  </metadata>
  <wpt lat="48.7795" lon="2.06717">
    <ele>141</ele>
    <name><![CDATA[Source de la Bièvre]]></name>
  </wpt>
  <trk>
    <name><![CDATA[20190512194147-mZccP]]></name>
    <trkseg>
      <trkpt lat="48.79583" lon="2.13451">
        <ele>218</ele>
        <time>2019-05-12T08:14:45.000Z</time>
      </trkpt>
      <trkpt lat="48.79583" lon="2.13451">
        <ele>218</ele>
        <time>2019-05-12T08:14:45.000Z</time>
      </trkpt>
      <trkpt lat="48.79583" lon="2.13451">
        <ele>218</ele>
        <time>2019-05-12T08:14:45.000Z</time>
      </trkpt>
      <trkpt lat="48.79583" lon="2.13451">
        <ele>217</ele>
        <time>2019-05-12T08:14:46.000Z</time>
      </trkpt>
      <trkpt lat="48.79585" lon="2.13449">
        <ele>209</ele>
        <time>2019-05-12T08:14:56.000Z</time>
      </trkpt>
      <trkpt lat="48.79588" lon="2.13444">
        <ele>198</ele>
        <time>2019-05-12T08:15:06.000Z</time>
      </trkpt>
      <trkpt lat="48.79588" lon="2.13443">
        <ele>196</ele>
        <time>2019-05-12T08:15:06.000Z</time>
      </trkpt>
      <trkpt lat="48.79589" lon="2.13443">
        <ele>196</ele>
        <time>2019-05-12T08:15:06.000Z</time>
      </trkpt>
      <trkpt lat="48.79589" lon="2.13442">
        <ele>197</ele>
        <time>2019-05-12T08:15:07.000Z</time>
      </trkpt>
      <trkpt lat="48.79589" lon="2.13442">
        <ele>198</ele>
        <time>2019-05-12T08:15:07.000Z</time>
      </trkpt>
      <trkpt lat="48.79591" lon="2.1344">
        <ele>198</ele>
        <time>2019-05-12T08:15:10.000Z</time>
      </trkpt>
      <trkpt lat="48.79594" lon="2.13436">
        <ele>197</ele>
        <time>2019-05-12T08:15:13.000Z</time>
      </trkpt>
      <trkpt lat="48.79597" lon="2.13433">
        <ele>197</ele>
        <time>2019-05-12T08:15:16.000Z</time>
      </trkpt>
      <trkpt lat="48.79601" lon="2.13429">
        <ele>197</ele>
        <time>2019-05-12T08:15:20.000Z</time>
      </trkpt>
      <trkpt lat="48.79604" lon="2.13425">
        <ele>196</ele>
        <time>2019-05-12T08:15:23.000Z</time>
      </trkpt>
      <trkpt lat="48.79607" lon="2.13421">
        <ele>196</ele>
        <time>2019-05-12T08:15:27.000Z</time>
      </trkpt>
      <trkpt lat="48.7961" lon="2.13417">
        <ele>196</ele>
        <time>2019-05-12T08:15:30.000Z</time>
      </trkpt>
      <trkpt lat="48.79614" lon="2.13413">
        <ele>195</ele>
        <time>2019-05-12T08:15:34.000Z</time>
      </trkpt>
      <trkpt lat="48.79616" lon="2.1341">
        <ele>195</ele>
        <time>2019-05-12T08:15:38.000Z</time>
      </trkpt>
      <trkpt lat="48.79619" lon="2.13408">
        <ele>195</ele>
        <time>2019-05-12T08:15:43.000Z</time>
      </trkpt>
      <trkpt lat="48.7962" lon="2.13405">
        <ele>194</ele>
        <time>2019-05-12T08:15:48.000Z</time>
      </trkpt>
      <trkpt lat="48.79622" lon="2.13403">
        <ele>194</ele>
        <time>2019-05-12T08:15:53.000Z</time>
      </trkpt>
      <trkpt lat="48.79624" lon="2.13403">
        <ele>193</ele>
        <time>2019-05-12T08:15:55.000Z</time>
      </trkpt>
      <trkpt lat="48.79626" lon="2.13404">
        <ele>193</ele>
        <time>2019-05-12T08:15:57.000Z</time>
      </trkpt>
      <trkpt lat="48.79628" lon="2.13406">
        <ele>193</ele>
        <time>2019-05-12T08:15:59.000Z</time>
      </trkpt>
      <trkpt lat="48.7963" lon="2.13409">
        <ele>193</ele>
        <time>2019-05-12T08:16:01.000Z</time>
      </trkpt>
      <trkpt lat="48.79633" lon="2.13412">
        <ele>193</ele>
        <time>2019-05-12T08:16:04.000Z</time>
      </trkpt>
      <trkpt lat="48.79637" lon="2.13415">
        <ele>193</ele>
        <time>2019-05-12T08:16:07.000Z</time>
      </trkpt>
      <trkpt lat="48.7964" lon="2.13419">
        <ele>193</ele>
        <time>2019-05-12T08:16:10.000Z</time>
      </trkpt>
      <trkpt lat="48.79644" lon="2.13423">
        <ele>192</ele>
        <time>2019-05-12T08:16:13.000Z</time>
      </trkpt>
      <trkpt lat="48.79646" lon="2.13425">
        <ele>192</ele>
        <time>2019-05-12T08:16:15.000Z</time>
      </trkpt>
      <trkpt lat="48.79647" lon="2.13426">
        <ele>192</ele>
        <time>2019-05-12T08:16:17.000Z</time>
      </trkpt>
      <trkpt lat="48.79647" lon="2.13427">
        <ele>192</ele>
        <time>2019-05-12T08:16:19.000Z</time>
      </trkpt>
      <trkpt lat="48.79648" lon="2.13427">
        <ele>192</ele>
        <time>2019-05-12T08:16:21.000Z</time>
      </trkpt>
      <trkpt lat="48.79647" lon="2.13427">
        <ele>192</ele>
        <time>2019-05-12T08:16:24.000Z</time>
      </trkpt>
      <trkpt lat="48.79647" lon="2.13426">
        <ele>192</ele>
        <time>2019-05-12T08:16:27.000Z</time>
      </trkpt>
      <trkpt lat="48.79646" lon="2.13424">
        <ele>192</ele>
        <time>2019-05-12T08:16:30.000Z</time>
      </trkpt>
      <trkpt lat="48.79645" lon="2.13423">
        <ele>192</ele>
        <time>2019-05-12T08:16:33.000Z</time>
      </trkpt>
      <trkpt lat="48.79645" lon="2.13422">
        <ele>191</ele>
        <time>2019-05-12T08:16:33.000Z</time>
      </trkpt>
      <trkpt lat="48.79644" lon="2.13421">
        <ele>191</ele>
        <time>2019-05-12T08:16:33.000Z</time>
      </trkpt>
      <trkpt lat="48.79644" lon="2.13421">
        <ele>192</ele>
        <time>2019-05-12T08:16:33.000Z</time>
      </trkpt>
      <trkpt lat="48.79644" lon="2.1342">
        <ele>192</ele>
        <time>2019-05-12T08:16:34.000Z</time>
      </trkpt>
      <trkpt lat="48.79642" lon="2.13418">
        <ele>191</ele>
        <time>2019-05-12T08:16:36.000Z</time>
      </trkpt>
      <trkpt lat="48.79641" lon="2.13415">
        <ele>191</ele>
        <time>2019-05-12T08:16:37.000Z</time>
      </trkpt>
      <trkpt lat="48.79638" lon="2.13411">
        <ele>191</ele>
        <time>2019-05-12T08:16:39.000Z</time>
      </trkpt>
      <trkpt lat="48.79636" lon="2.13407">
        <ele>191</ele>
        <time>2019-05-12T08:16:41.000Z</time>
      </trkpt>
      <trkpt lat="48.79634" lon="2.13403">
        <ele>191</ele>
        <time>2019-05-12T08:16:44.000Z</time>
      </trkpt>
      <trkpt lat="48.79631" lon="2.13398">
        <ele>191</ele>
        <time>2019-05-12T08:16:46.000Z</time>
      </trkpt>
      <trkpt lat="48.79628" lon="2.13392">
        <ele>191</ele>
        <time>2019-05-12T08:16:49.000Z</time>
      </trkpt>
      <trkpt lat="48.79625" lon="2.13387">
        <ele>191</ele>
        <time>2019-05-12T08:16:52.000Z</time>
      </trkpt>
      <trkpt lat="48.79623" lon="2.13383">
        <ele>191</ele>
        <time>2019-05-12T08:16:54.000Z</time>
      </trkpt>
      <trkpt lat="48.79622" lon="2.1338">
        <ele>191</ele>
        <time>2019-05-12T08:16:56.000Z</time>
      </trkpt>
      <trkpt lat="48.79621" lon="2.13377">
        <ele>191</ele>
        <time>2019-05-12T08:16:58.000Z</time>
      </trkpt>
      <trkpt lat="48.7962" lon="2.13375">
        <ele>191</ele>
        <time>2019-05-12T08:17:00.000Z</time>
      </trkpt>
      <trkpt lat="48.79619" lon="2.13372">
        <ele>191</ele>
        <time>2019-05-12T08:17:02.000Z</time>
      </trkpt>
      <trkpt lat="48.79617" lon="2.13369">
        <ele>191</ele>
        <time>2019-05-12T08:17:04.000Z</time>
      </trkpt>
      <trkpt lat="48.79615" lon="2.13366">
        <ele>191</ele>
        <time>2019-05-12T08:17:06.000Z</time>
      </trkpt>
      <trkpt lat="48.79614" lon="2.13363">
        <ele>191</ele>
        <time>2019-05-12T08:17:09.000Z</time>
      </trkpt>
      <trkpt lat="48.79604" lon="2.13341">
        <ele>190</ele>
        <time>2019-05-12T08:17:23.000Z</time>
      </trkpt>
      <trkpt lat="48.79594" lon="2.13318">
        <ele>190</ele>
        <time>2019-05-12T08:17:39.000Z</time>
      </trkpt>
      <trkpt lat="48.79584" lon="2.13296">
        <ele>189</ele>
        <time>2019-05-12T08:17:54.000Z</time>
      </trkpt>
      <trkpt lat="48.79575" lon="2.1328">
        <ele>189</ele>
        <time>2019-05-12T08:18:10.000Z</time>
      </trkpt>
      <trkpt lat="48.79574" lon="2.13278">
        <ele>189</ele>
        <time>2019-05-12T08:18:33.000Z</time>
      </trkpt>
      <trkpt lat="48.79574" lon="2.13277">
        <ele>189</ele>
        <time>2019-05-12T08:18:34.000Z</time>
      </trkpt>
      <trkpt lat="48.79571" lon="2.13269">
        <ele>189</ele>
        <time>2019-05-12T08:18:39.000Z</time>
      </trkpt>
      <trkpt lat="48.79567" lon="2.13263">
        <ele>188</ele>
        <time>2019-05-12T08:18:53.000Z</time>
      </trkpt>
      <trkpt lat="48.79566" lon="2.1326">
        <ele>188</ele>
        <time>2019-05-12T08:18:54.000Z</time>
      </trkpt>
      <trkpt lat="48.79554" lon="2.13239">
        <ele>188</ele>
        <time>2019-05-12T08:19:05.000Z</time>
      </trkpt>
      <trkpt lat="48.79543" lon="2.13219">
        <ele>188</ele>
        <time>2019-05-12T08:19:19.000Z</time>
      </trkpt>
      <trkpt lat="48.79532" lon="2.13201">
        <ele>188</ele>
        <time>2019-05-12T08:19:33.000Z</time>
      </trkpt>
      <trkpt lat="48.79522" lon="2.13183">
        <ele>188</ele>
        <time>2019-05-12T08:19:45.000Z</time>
      </trkpt>
      <trkpt lat="48.79516" lon="2.13172">
        <ele>188</ele>
        <time>2019-05-12T08:19:51.000Z</time>
      </trkpt>
      <trkpt lat="48.79504" lon="2.13153">
        <ele>188</ele>
        <time>2019-05-12T08:20:05.000Z</time>
      </trkpt>
      <trkpt lat="48.79493" lon="2.13132">
        <ele>188</ele>
        <time>2019-05-12T08:20:21.000Z</time>
      </trkpt>
      <trkpt lat="48.79483" lon="2.13115">
        <ele>188</ele>
        <time>2019-05-12T08:20:36.000Z</time>
      </trkpt>
      <trkpt lat="48.79474" lon="2.13098">
        <ele>188</ele>
        <time>2019-05-12T08:20:47.000Z</time>
      </trkpt>
      <trkpt lat="48.79465" lon="2.13078">
        <ele>188</ele>
        <time>2019-05-12T08:20:58.000Z</time>
      </trkpt>
      <trkpt lat="48.79462" lon="2.13072">
        <ele>188</ele>
        <time>2019-05-12T08:21:06.000Z</time>
      </trkpt>
      <trkpt lat="48.79462" lon="2.13069">
        <ele>188</ele>
        <time>2019-05-12T08:21:14.000Z</time>
      </trkpt>
      <trkpt lat="48.79461" lon="2.13068">
        <ele>188</ele>
        <time>2019-05-12T08:21:15.000Z</time>
      </trkpt>
      <trkpt lat="48.79461" lon="2.1305">
        <ele>188</ele>
        <time>2019-05-12T08:21:24.000Z</time>
      </trkpt>
      <trkpt lat="48.79463" lon="2.13046">
        <ele>188</ele>
        <time>2019-05-12T08:21:27.000Z</time>
      </trkpt>
      <trkpt lat="48.79466" lon="2.13041">
        <ele>188</ele>
        <time>2019-05-12T08:21:29.000Z</time>
      </trkpt>
      <trkpt lat="48.79469" lon="2.13036">
        <ele>188</ele>
        <time>2019-05-12T08:21:32.000Z</time>
      </trkpt>
      <trkpt lat="48.79472" lon="2.13031">
        <ele>188</ele>
        <time>2019-05-12T08:21:35.000Z</time>
      </trkpt>
      <trkpt lat="48.79475" lon="2.13026">
        <ele>188</ele>
        <time>2019-05-12T08:21:38.000Z</time>
      </trkpt>
      <trkpt lat="48.79479" lon="2.13022">
        <ele>188</ele>
        <time>2019-05-12T08:21:42.000Z</time>
      </trkpt>
      <trkpt lat="48.79482" lon="2.13018">
        <ele>187</ele>
        <time>2019-05-12T08:21:45.000Z</time>
      </trkpt>
      <trkpt lat="48.79485" lon="2.13013">
        <ele>187</ele>
        <time>2019-05-12T08:21:49.000Z</time>
      </trkpt>
      <trkpt lat="48.79486" lon="2.13011">
        <ele>187</ele>
        <time>2019-05-12T08:21:59.000Z</time>
      </trkpt>
      <trkpt lat="48.79484" lon="2.13011">
        <ele>188</ele>
        <time>2019-05-12T08:22:10.000Z</time>
      </trkpt>
      <trkpt lat="48.79484" lon="2.13011">
        <ele>188</ele>
        <time>2019-05-12T08:22:10.000Z</time>
      </trkpt>
      <trkpt lat="48.79484" lon="2.1301">
        <ele>188</ele>
        <time>2019-05-12T08:22:10.000Z</time>
      </trkpt>
      <trkpt lat="48.79484" lon="2.1301">
        <ele>188</ele>
        <time>2019-05-12T08:22:10.000Z</time>
      </trkpt>
      <trkpt lat="48.79484" lon="2.13009">
        <ele>188</ele>
        <time>2019-05-12T08:22:11.000Z</time>
      </trkpt>
      <trkpt lat="48.79482" lon="2.13006">
        <ele>188</ele>
        <time>2019-05-12T08:22:14.000Z</time>
      </trkpt>
      <trkpt lat="48.79479" lon="2.13002">
        <ele>188</ele>
        <time>2019-05-12T08:22:17.000Z</time>
      </trkpt>
      <trkpt lat="48.79476" lon="2.12997">
        <ele>188</ele>
        <time>2019-05-12T08:22:20.000Z</time>
      </trkpt>
      <trkpt lat="48.79473" lon="2.12992">
        <ele>188</ele>
        <time>2019-05-12T08:22:23.000Z</time>
      </trkpt>
      <trkpt lat="48.79466" lon="2.12987">
        <ele>188</ele>
        <time>2019-05-12T08:22:29.000Z</time>
      </trkpt>
      <trkpt lat="48.79457" lon="2.12985">
        <ele>188</ele>
        <time>2019-05-12T08:22:36.000Z</time>
      </trkpt>
      <trkpt lat="48.79454" lon="2.12982">
        <ele>188</ele>
        <time>2019-05-12T08:22:39.000Z</time>
      </trkpt>
      <trkpt lat="48.7945" lon="2.12979">
        <ele>188</ele>
        <time>2019-05-12T08:22:43.000Z</time>
      </trkpt>
      <trkpt lat="48.79448" lon="2.12976">
        <ele>188</ele>
        <time>2019-05-12T08:22:46.000Z</time>
      </trkpt>
      <trkpt lat="48.79445" lon="2.12973">
        <ele>188</ele>
        <time>2019-05-12T08:22:50.000Z</time>
      </trkpt>
      <trkpt lat="48.79441" lon="2.12971">
        <ele>188</ele>
        <time>2019-05-12T08:22:53.000Z</time>
      </trkpt>
      <trkpt lat="48.79437" lon="2.1297">
        <ele>188</ele>
        <time>2019-05-12T08:22:57.000Z</time>
      </trkpt>
      <trkpt lat="48.79433" lon="2.12969">
        <ele>188</ele>
        <time>2019-05-12T08:23:01.000Z</time>
      </trkpt>
      <trkpt lat="48.79429" lon="2.12968">
        <ele>188</ele>
        <time>2019-05-12T08:23:05.000Z</time>
      </trkpt>
      <trkpt lat="48.79426" lon="2.12967">
        <ele>188</ele>
        <time>2019-05-12T08:23:08.000Z</time>
      </trkpt>
      <trkpt lat="48.79422" lon="2.12966">
        <ele>188</ele>
        <time>2019-05-12T08:23:11.000Z</time>
      </trkpt>
      <trkpt lat="48.79419" lon="2.12965">
        <ele>188</ele>
        <time>2019-05-12T08:23:14.000Z</time>
      </trkpt>
      <trkpt lat="48.79415" lon="2.12964">
        <ele>188</ele>
        <time>2019-05-12T08:23:17.000Z</time>
      </trkpt>
      <trkpt lat="48.79412" lon="2.12963">
        <ele>188</ele>
        <time>2019-05-12T08:23:19.000Z</time>
      </trkpt>
      <trkpt lat="48.79409" lon="2.12961">
        <ele>188</ele>
        <time>2019-05-12T08:23:22.000Z</time>
      </trkpt>
      <trkpt lat="48.79406" lon="2.1296">
        <ele>188</ele>
        <time>2019-05-12T08:23:24.000Z</time>
      </trkpt>
      <trkpt lat="48.79403" lon="2.12958">
        <ele>188</ele>
        <time>2019-05-12T08:23:27.000Z</time>
      </trkpt>
      <trkpt lat="48.794" lon="2.12957">
        <ele>188</ele>
        <time>2019-05-12T08:23:30.000Z</time>
      </trkpt>
      <trkpt lat="48.79397" lon="2.12956">
        <ele>188</ele>
        <time>2019-05-12T08:23:32.000Z</time>
      </trkpt>
      <trkpt lat="48.79394" lon="2.12954">
        <ele>188</ele>
        <time>2019-05-12T08:23:35.000Z</time>
      </trkpt>
      <trkpt lat="48.79391" lon="2.12953">
        <ele>188</ele>
        <time>2019-05-12T08:23:38.000Z</time>
      </trkpt>
      <trkpt lat="48.79379" lon="2.12944">
        <ele>188</ele>
        <time>2019-05-12T08:23:51.000Z</time>
      </trkpt>
      <trkpt lat="48.79368" lon="2.12938">
        <ele>188</ele>
        <time>2019-05-12T08:24:03.000Z</time>
      </trkpt>
      <trkpt lat="48.79356" lon="2.12931">
        <ele>188</ele>
        <time>2019-05-12T08:24:10.000Z</time>
      </trkpt>
      <trkpt lat="48.79344" lon="2.12922">
        <ele>188</ele>
        <time>2019-05-12T08:24:21.000Z</time>
      </trkpt>
      <trkpt lat="48.79331" lon="2.12912">
        <ele>188</ele>
        <time>2019-05-12T08:24:34.000Z</time>
      </trkpt>
      <trkpt lat="48.79316" lon="2.12904">
        <ele>188</ele>
        <time>2019-05-12T08:24:47.000Z</time>
      </trkpt>
      <trkpt lat="48.79303" lon="2.12897">
        <ele>188</ele>
        <time>2019-05-12T08:24:59.000Z</time>
      </trkpt>
      <trkpt lat="48.79296" lon="2.12894">
        <ele>188</ele>
        <time>2019-05-12T08:25:03.000Z</time>
      </trkpt>
      <trkpt lat="48.79289" lon="2.12887">
        <ele>188</ele>
        <time>2019-05-12T08:25:10.000Z</time>
      </trkpt>
      <trkpt lat="48.79283" lon="2.12879">
        <ele>188</ele>
        <time>2019-05-12T08:25:17.000Z</time>
      </trkpt>
      <trkpt lat="48.79274" lon="2.12874">
        <ele>188</ele>
        <time>2019-05-12T08:25:25.000Z</time>
      </trkpt>
      <trkpt lat="48.79265" lon="2.1287">
        <ele>188</ele>
        <time>2019-05-12T08:25:32.000Z</time>
      </trkpt>
      <trkpt lat="48.79248" lon="2.12867">
        <ele>187</ele>
        <time>2019-05-12T08:25:49.000Z</time>
      </trkpt>
      <trkpt lat="48.79234" lon="2.12856">
        <ele>187</ele>
        <time>2019-05-12T08:26:05.000Z</time>
      </trkpt>
      <trkpt lat="48.79233" lon="2.1285">
        <ele>187</ele>
        <time>2019-05-12T08:26:09.000Z</time>
      </trkpt>
      <trkpt lat="48.79233" lon="2.12844">
        <ele>187</ele>
        <time>2019-05-12T08:26:12.000Z</time>
      </trkpt>
      <trkpt lat="48.79234" lon="2.12837">
        <ele>187</ele>
        <time>2019-05-12T08:26:16.000Z</time>
      </trkpt>
      <trkpt lat="48.79234" lon="2.1283">
        <ele>187</ele>
        <time>2019-05-12T08:26:20.000Z</time>
      </trkpt>
      <trkpt lat="48.79231" lon="2.12819">
        <ele>187</ele>
        <time>2019-05-12T08:26:27.000Z</time>
      </trkpt>
      <trkpt lat="48.79227" lon="2.1281">
        <ele>187</ele>
        <time>2019-05-12T08:26:35.000Z</time>
      </trkpt>
      <trkpt lat="48.79225" lon="2.12805">
        <ele>187</ele>
        <time>2019-05-12T08:26:37.000Z</time>
      </trkpt>
      <trkpt lat="48.79223" lon="2.128">
        <ele>187</ele>
        <time>2019-05-12T08:26:39.000Z</time>
      </trkpt>
      <trkpt lat="48.79222" lon="2.12795">
        <ele>187</ele>
        <time>2019-05-12T08:26:42.000Z</time>
      </trkpt>
      <trkpt lat="48.7922" lon="2.12789">
        <ele>187</ele>
        <time>2019-05-12T08:26:44.000Z</time>
      </trkpt>
      <trkpt lat="48.79218" lon="2.12784">
        <ele>187</ele>
        <time>2019-05-12T08:26:48.000Z</time>
      </trkpt>
      <trkpt lat="48.79216" lon="2.12778">
        <ele>187</ele>
        <time>2019-05-12T08:26:53.000Z</time>
      </trkpt>
      <trkpt lat="48.79214" lon="2.12772">
        <ele>187</ele>
        <time>2019-05-12T08:26:57.000Z</time>
      </trkpt>
      <trkpt lat="48.79212" lon="2.12766">
        <ele>187</ele>
        <time>2019-05-12T08:27:02.000Z</time>
      </trkpt>
      <trkpt lat="48.7921" lon="2.12761">
        <ele>187</ele>
        <time>2019-05-12T08:27:05.000Z</time>
      </trkpt>
      <trkpt lat="48.79209" lon="2.12755">
        <ele>187</ele>
        <time>2019-05-12T08:27:09.000Z</time>
      </trkpt>
      <trkpt lat="48.79208" lon="2.12749">
        <ele>187</ele>
        <time>2019-05-12T08:27:13.000Z</time>
      </trkpt>
      <trkpt lat="48.79207" lon="2.12744">
        <ele>187</ele>
        <time>2019-05-12T08:27:17.000Z</time>
      </trkpt>
      <trkpt lat="48.79205" lon="2.12738">
        <ele>187</ele>
        <time>2019-05-12T08:27:20.000Z</time>
      </trkpt>
      <trkpt lat="48.79204" lon="2.12733">
        <ele>187</ele>
        <time>2019-05-12T08:27:24.000Z</time>
      </trkpt>
      <trkpt lat="48.79203" lon="2.12727">
        <ele>187</ele>
        <time>2019-05-12T08:27:27.000Z</time>
      </trkpt>
      <trkpt lat="48.79201" lon="2.12722">
        <ele>188</ele>
        <time>2019-05-12T08:27:31.000Z</time>
      </trkpt>
      <trkpt lat="48.79199" lon="2.12716">
        <ele>188</ele>
        <time>2019-05-12T08:27:34.000Z</time>
      </trkpt>
      <trkpt lat="48.79197" lon="2.12711">
        <ele>188</ele>
        <time>2019-05-12T08:27:37.000Z</time>
      </trkpt>
      <trkpt lat="48.79195" lon="2.12706">
        <ele>188</ele>
        <time>2019-05-12T08:27:41.000Z</time>
      </trkpt>
      <trkpt lat="48.79192" lon="2.12702">
        <ele>188</ele>
        <time>2019-05-12T08:27:44.000Z</time>
      </trkpt>
      <trkpt lat="48.79186" lon="2.12679">
        <ele>188</ele>
        <time>2019-05-12T08:27:58.000Z</time>
      </trkpt>
      <trkpt lat="48.7918" lon="2.12656">
        <ele>188</ele>
        <time>2019-05-12T08:28:11.000Z</time>
      </trkpt>
      <trkpt lat="48.79177" lon="2.12632">
        <ele>188</ele>
        <time>2019-05-12T08:28:26.000Z</time>
      </trkpt>
      <trkpt lat="48.79178" lon="2.1262">
        <ele>188</ele>
        <time>2019-05-12T08:28:32.000Z</time>
      </trkpt>
      <trkpt lat="48.79181" lon="2.12609">
        <ele>188</ele>
        <time>2019-05-12T08:28:38.000Z</time>
      </trkpt>
      <trkpt lat="48.7918" lon="2.12597">
        <ele>188</ele>
        <time>2019-05-12T08:28:44.000Z</time>
      </trkpt>
      <trkpt lat="48.79178" lon="2.12585">
        <ele>188</ele>
        <time>2019-05-12T08:28:51.000Z</time>
      </trkpt>
      <trkpt lat="48.79178" lon="2.12579">
        <ele>188</ele>
        <time>2019-05-12T08:28:55.000Z</time>
      </trkpt>
      <trkpt lat="48.79176" lon="2.12574">
        <ele>188</ele>
        <time>2019-05-12T08:28:59.000Z</time>
      </trkpt>
      <trkpt lat="48.79176" lon="2.12568">
        <ele>188</ele>
        <time>2019-05-12T08:29:04.000Z</time>
      </trkpt>
      <trkpt lat="48.79175" lon="2.12563">
        <ele>188</ele>
        <time>2019-05-12T08:29:08.000Z</time>
      </trkpt>
      <trkpt lat="48.79174" lon="2.12557">
        <ele>188</ele>
        <time>2019-05-12T08:29:11.000Z</time>
      </trkpt>
      <trkpt lat="48.79172" lon="2.12552">
        <ele>189</ele>
        <time>2019-05-12T08:29:14.000Z</time>
      </trkpt>
      <trkpt lat="48.79171" lon="2.12547">
        <ele>189</ele>
        <time>2019-05-12T08:29:17.000Z</time>
      </trkpt>
      <trkpt lat="48.79169" lon="2.12541">
        <ele>189</ele>
        <time>2019-05-12T08:29:20.000Z</time>
      </trkpt>
      <trkpt lat="48.79168" lon="2.12535">
        <ele>189</ele>
        <time>2019-05-12T08:29:23.000Z</time>
      </trkpt>
      <trkpt lat="48.79168" lon="2.1253">
        <ele>189</ele>
        <time>2019-05-12T08:29:27.000Z</time>
      </trkpt>
      <trkpt lat="48.79168" lon="2.12524">
        <ele>189</ele>
        <time>2019-05-12T08:29:30.000Z</time>
      </trkpt>
      <trkpt lat="48.79168" lon="2.12518">
        <ele>189</ele>
        <time>2019-05-12T08:29:34.000Z</time>
      </trkpt>
      <trkpt lat="48.79167" lon="2.12512">
        <ele>189</ele>
        <time>2019-05-12T08:29:38.000Z</time>
      </trkpt>
      <trkpt lat="48.79167" lon="2.12506">
        <ele>189</ele>
        <time>2019-05-12T08:29:42.000Z</time>
      </trkpt>
      <trkpt lat="48.79167" lon="2.12501">
        <ele>189</ele>
        <time>2019-05-12T08:29:47.000Z</time>
      </trkpt>
      <trkpt lat="48.79166" lon="2.12495">
        <ele>189</ele>
        <time>2019-05-12T08:29:51.000Z</time>
      </trkpt>
      <trkpt lat="48.79166" lon="2.12491">
        <ele>190</ele>
        <time>2019-05-12T08:29:54.000Z</time>
      </trkpt>
      <trkpt lat="48.79165" lon="2.12487">
        <ele>190</ele>
        <time>2019-05-12T08:29:58.000Z</time>
      </trkpt>
      <trkpt lat="48.79164" lon="2.12484">
        <ele>190</ele>
        <time>2019-05-12T08:30:01.000Z</time>
      </trkpt>
      <trkpt lat="48.79163" lon="2.12481">
        <ele>190</ele>
        <time>2019-05-12T08:30:05.000Z</time>
      </trkpt>
      <trkpt lat="48.79159" lon="2.12475">
        <ele>190</ele>
        <time>2019-05-12T08:30:09.000Z</time>
      </trkpt>
      <trkpt lat="48.79155" lon="2.12469">
        <ele>190</ele>
        <time>2019-05-12T08:30:14.000Z</time>
      </trkpt>
      <trkpt lat="48.79153" lon="2.12466">
        <ele>190</ele>
        <time>2019-05-12T08:30:14.000Z</time>
      </trkpt>
      <trkpt lat="48.79152" lon="2.12463">
        <ele>190</ele>
        <time>2019-05-12T08:30:15.000Z</time>
      </trkpt>
      <trkpt lat="48.7915" lon="2.1246">
        <ele>190</ele>
        <time>2019-05-12T08:30:15.000Z</time>
      </trkpt>
      <trkpt lat="48.79149" lon="2.12458">
        <ele>190</ele>
        <time>2019-05-12T08:30:16.000Z</time>
      </trkpt>
      <trkpt lat="48.79148" lon="2.12455">
        <ele>190</ele>
        <time>2019-05-12T08:30:16.000Z</time>
      </trkpt>
      <trkpt lat="48.79147" lon="2.12453">
        <ele>190</ele>
        <time>2019-05-12T08:30:17.000Z</time>
      </trkpt>
      <trkpt lat="48.79146" lon="2.12451">
        <ele>190</ele>
        <time>2019-05-12T08:30:17.000Z</time>
      </trkpt>
      <trkpt lat="48.79145" lon="2.12449">
        <ele>190</ele>
        <time>2019-05-12T08:30:18.000Z</time>
      </trkpt>
      <trkpt lat="48.79142" lon="2.12446">
        <ele>190</ele>
        <time>2019-05-12T08:30:21.000Z</time>
      </trkpt>
      <trkpt lat="48.79139" lon="2.12441">
        <ele>190</ele>
        <time>2019-05-12T08:30:25.000Z</time>
      </trkpt>
      <trkpt lat="48.79136" lon="2.12436">
        <ele>191</ele>
        <time>2019-05-12T08:30:28.000Z</time>
      </trkpt>
      <trkpt lat="48.79133" lon="2.12431">
        <ele>191</ele>
        <time>2019-05-12T08:30:32.000Z</time>
      </trkpt>
      <trkpt lat="48.79129" lon="2.12427">
        <ele>191</ele>
        <time>2019-05-12T08:30:36.000Z</time>
      </trkpt>
      <trkpt lat="48.79126" lon="2.12424">
        <ele>191</ele>
        <time>2019-05-12T08:30:41.000Z</time>
      </trkpt>
      <trkpt lat="48.79122" lon="2.12422">
        <ele>191</ele>
        <time>2019-05-12T08:30:45.000Z</time>
      </trkpt>
      <trkpt lat="48.79119" lon="2.1242">
        <ele>191</ele>
        <time>2019-05-12T08:30:50.000Z</time>
      </trkpt>
      <trkpt lat="48.79116" lon="2.12418">
        <ele>191</ele>
        <time>2019-05-12T08:30:52.000Z</time>
      </trkpt>
      <trkpt lat="48.79115" lon="2.12417">
        <ele>191</ele>
        <time>2019-05-12T08:30:54.000Z</time>
      </trkpt>
      <trkpt lat="48.79113" lon="2.12415">
        <ele>191</ele>
        <time>2019-05-12T08:30:56.000Z</time>
      </trkpt>
      <trkpt lat="48.79112" lon="2.12414">
        <ele>191</ele>
        <time>2019-05-12T08:30:59.000Z</time>
      </trkpt>
      <trkpt lat="48.79096" lon="2.12406">
        <ele>192</ele>
        <time>2019-05-12T08:31:09.000Z</time>
      </trkpt>
      <trkpt lat="48.79082" lon="2.12403">
        <ele>192</ele>
        <time>2019-05-12T08:31:22.000Z</time>
      </trkpt>
      <trkpt lat="48.79068" lon="2.12402">
        <ele>192</ele>
        <time>2019-05-12T08:31:33.000Z</time>
      </trkpt>
      <trkpt lat="48.79055" lon="2.12403">
        <ele>192</ele>
        <time>2019-05-12T08:31:42.000Z</time>
      </trkpt>
      <trkpt lat="48.7904" lon="2.12408">
        <ele>192</ele>
        <time>2019-05-12T08:31:52.000Z</time>
      </trkpt>
      <trkpt lat="48.79027" lon="2.12418">
        <ele>193</ele>
        <time>2019-05-12T08:32:09.000Z</time>
      </trkpt>
      <trkpt lat="48.79023" lon="2.12421">
        <ele>193</ele>
        <time>2019-05-12T08:32:14.000Z</time>
      </trkpt>
      <trkpt lat="48.79016" lon="2.12427">
        <ele>193</ele>
        <time>2019-05-12T08:32:20.000Z</time>
      </trkpt>
      <trkpt lat="48.79012" lon="2.1243">
        <ele>194</ele>
        <time>2019-05-12T08:32:22.000Z</time>
      </trkpt>
      <trkpt lat="48.79006" lon="2.12436">
        <ele>194</ele>
        <time>2019-05-12T08:32:24.000Z</time>
      </trkpt>
      <trkpt lat="48.79001" lon="2.12441">
        <ele>194</ele>
        <time>2019-05-12T08:32:26.000Z</time>
      </trkpt>
      <trkpt lat="48.78998" lon="2.12446">
        <ele>195</ele>
        <time>2019-05-12T08:32:28.000Z</time>
      </trkpt>
      <trkpt lat="48.78994" lon="2.12449">
        <ele>196</ele>
        <time>2019-05-12T08:32:34.000Z</time>
      </trkpt>
      <trkpt lat="48.78992" lon="2.1245">
        <ele>196</ele>
        <time>2019-05-12T08:32:37.000Z</time>
      </trkpt>
      <trkpt lat="48.78991" lon="2.12452">
        <ele>201</ele>
        <time>2019-05-12T08:33:03.000Z</time>
      </trkpt>
      <trkpt lat="48.78964" lon="2.12493">
        <ele>201</ele>
        <time>2019-05-12T08:33:05.000Z</time>
      </trkpt>
      <trkpt lat="48.7895" lon="2.12507">
        <ele>202</ele>
        <time>2019-05-12T08:33:15.000Z</time>
      </trkpt>
      <trkpt lat="48.78933" lon="2.12519">
        <ele>202</ele>
        <time>2019-05-12T08:33:34.000Z</time>
      </trkpt>
      <trkpt lat="48.78919" lon="2.12533">
        <ele>203</ele>
        <time>2019-05-12T08:33:46.000Z</time>
      </trkpt>
      <trkpt lat="48.78913" lon="2.12544">
        <ele>204</ele>
        <time>2019-05-12T08:33:54.000Z</time>
      </trkpt>
      <trkpt lat="48.78906" lon="2.12555">
        <ele>204</ele>
        <time>2019-05-12T08:34:00.000Z</time>
      </trkpt>
      <trkpt lat="48.78898" lon="2.12566">
        <ele>205</ele>
        <time>2019-05-12T08:34:07.000Z</time>
      </trkpt>
      <trkpt lat="48.7889" lon="2.12574">
        <ele>206</ele>
        <time>2019-05-12T08:34:13.000Z</time>
      </trkpt>
      <trkpt lat="48.78887" lon="2.12574">
        <ele>206</ele>
        <time>2019-05-12T08:34:15.000Z</time>
      </trkpt>
      <trkpt lat="48.78885" lon="2.12573">
        <ele>206</ele>
        <time>2019-05-12T08:34:18.000Z</time>
      </trkpt>
      <trkpt lat="48.78883" lon="2.12573">
        <ele>207</ele>
        <time>2019-05-12T08:34:20.000Z</time>
      </trkpt>
      <trkpt lat="48.7888" lon="2.12572">
        <ele>207</ele>
        <time>2019-05-12T08:34:23.000Z</time>
      </trkpt>
      <trkpt lat="48.78879" lon="2.12568">
        <ele>207</ele>
        <time>2019-05-12T08:34:26.000Z</time>
      </trkpt>
      <trkpt lat="48.78879" lon="2.12564">
        <ele>208</ele>
        <time>2019-05-12T08:34:29.000Z</time>
      </trkpt>
      <trkpt lat="48.78878" lon="2.12558">
        <ele>208</ele>
        <time>2019-05-12T08:34:32.000Z</time>
      </trkpt>
      <trkpt lat="48.78878" lon="2.12552">
        <ele>208</ele>
        <time>2019-05-12T08:34:35.000Z</time>
      </trkpt>
      <trkpt lat="48.78878" lon="2.12549">
        <ele>209</ele>
        <time>2019-05-12T08:34:38.000Z</time>
      </trkpt>
      <trkpt lat="48.78877" lon="2.12546">
        <ele>209</ele>
        <time>2019-05-12T08:34:40.000Z</time>
      </trkpt>
      <trkpt lat="48.78877" lon="2.12543">
        <ele>209</ele>
        <time>2019-05-12T08:34:43.000Z</time>
      </trkpt>
      <trkpt lat="48.78876" lon="2.12541">
        <ele>210</ele>
        <time>2019-05-12T08:34:46.000Z</time>
      </trkpt>
      <trkpt lat="48.78874" lon="2.12539">
        <ele>210</ele>
        <time>2019-05-12T08:34:49.000Z</time>
      </trkpt>
      <trkpt lat="48.78872" lon="2.12538">
        <ele>210</ele>
        <time>2019-05-12T08:34:52.000Z</time>
      </trkpt>
      <trkpt lat="48.78869" lon="2.12537">
        <ele>211</ele>
        <time>2019-05-12T08:34:55.000Z</time>
      </trkpt>
      <trkpt lat="48.78865" lon="2.12536">
        <ele>211</ele>
        <time>2019-05-12T08:34:59.000Z</time>
      </trkpt>
      <trkpt lat="48.78864" lon="2.12536">
        <ele>212</ele>
        <time>2019-05-12T08:35:47.000Z</time>
      </trkpt>
      <trkpt lat="48.78864" lon="2.12536">
        <ele>213</ele>
        <time>2019-05-12T08:36:36.000Z</time>
      </trkpt>
      <trkpt lat="48.78864" lon="2.12536">
        <ele>214</ele>
        <time>2019-05-12T08:37:25.000Z</time>
      </trkpt>
      <trkpt lat="48.78864" lon="2.12536">
        <ele>216</ele>
        <time>2019-05-12T08:38:14.000Z</time>
      </trkpt>
      <trkpt lat="48.78863" lon="2.12536">
        <ele>216</ele>
        <time>2019-05-12T08:38:14.000Z</time>
      </trkpt>
      <trkpt lat="48.78863" lon="2.12536">
        <ele>216</ele>
        <time>2019-05-12T08:38:14.000Z</time>
      </trkpt>
      <trkpt lat="48.78863" lon="2.12536">
        <ele>216</ele>
        <time>2019-05-12T08:38:15.000Z</time>
      </trkpt>
      <trkpt lat="48.78862" lon="2.12536">
        <ele>216</ele>
        <time>2019-05-12T08:38:15.000Z</time>
      </trkpt>
      <trkpt lat="48.78859" lon="2.12536">
        <ele>216</ele>
        <time>2019-05-12T08:38:17.000Z</time>
      </trkpt>
      <trkpt lat="48.78855" lon="2.12536">
        <ele>216</ele>
        <time>2019-05-12T08:38:20.000Z</time>
      </trkpt>
      <trkpt lat="48.7885" lon="2.12536">
        <ele>216</ele>
        <time>2019-05-12T08:38:22.000Z</time>
      </trkpt>
      <trkpt lat="48.78845" lon="2.12536">
        <ele>216</ele>
        <time>2019-05-12T08:38:25.000Z</time>
      </trkpt>
      <trkpt lat="48.78841" lon="2.12537">
        <ele>216</ele>
        <time>2019-05-12T08:38:29.000Z</time>
      </trkpt>
      <trkpt lat="48.78838" lon="2.12538">
        <ele>216</ele>
        <time>2019-05-12T08:38:32.000Z</time>
      </trkpt>
      <trkpt lat="48.78835" lon="2.1254">
        <ele>216</ele>
        <time>2019-05-12T08:38:36.000Z</time>
      </trkpt>
      <trkpt lat="48.78831" lon="2.12541">
        <ele>216</ele>
        <time>2019-05-12T08:38:40.000Z</time>
      </trkpt>
      <trkpt lat="48.78828" lon="2.12542">
        <ele>216</ele>
        <time>2019-05-12T08:38:42.000Z</time>
      </trkpt>
      <trkpt lat="48.78826" lon="2.12542">
        <ele>216</ele>
        <time>2019-05-12T08:38:45.000Z</time>
      </trkpt>
      <trkpt lat="48.78824" lon="2.12543">
        <ele>216</ele>
        <time>2019-05-12T08:38:47.000Z</time>
      </trkpt>
      <trkpt lat="48.78822" lon="2.12543">
        <ele>216</ele>
        <time>2019-05-12T08:38:50.000Z</time>
      </trkpt>
      <trkpt lat="48.78809" lon="2.12545">
        <ele>216</ele>
        <time>2019-05-12T08:38:58.000Z</time>
      </trkpt>
      <trkpt lat="48.78795" lon="2.12547">
        <ele>216</ele>
        <time>2019-05-12T08:39:10.000Z</time>
      </trkpt>
      <trkpt lat="48.78792" lon="2.12546">
        <ele>216</ele>
        <time>2019-05-12T08:39:15.000Z</time>
      </trkpt>
      <trkpt lat="48.78789" lon="2.12546">
        <ele>216</ele>
        <time>2019-05-12T08:39:17.000Z</time>
      </trkpt>
      <trkpt lat="48.7878" lon="2.12544">
        <ele>216</ele>
        <time>2019-05-12T08:39:19.000Z</time>
      </trkpt>
      <trkpt lat="48.78764" lon="2.12539">
        <ele>216</ele>
        <time>2019-05-12T08:39:39.000Z</time>
      </trkpt>
      <trkpt lat="48.78749" lon="2.12537">
        <ele>216</ele>
        <time>2019-05-12T08:39:53.000Z</time>
      </trkpt>
      <trkpt lat="48.78736" lon="2.12534">
        <ele>216</ele>
        <time>2019-05-12T08:40:02.000Z</time>
      </trkpt>
      <trkpt lat="48.7872" lon="2.1253">
        <ele>216</ele>
        <time>2019-05-12T08:40:12.000Z</time>
      </trkpt>
      <trkpt lat="48.78705" lon="2.12527">
        <ele>216</ele>
        <time>2019-05-12T08:40:26.000Z</time>
      </trkpt>
      <trkpt lat="48.78701" lon="2.12529">
        <ele>216</ele>
        <time>2019-05-12T08:40:31.000Z</time>
      </trkpt>
      <trkpt lat="48.78685" lon="2.12535">
        <ele>216</ele>
        <time>2019-05-12T08:40:45.000Z</time>
      </trkpt>
      <trkpt lat="48.78684" lon="2.12536">
        <ele>216</ele>
        <time>2019-05-12T08:40:49.000Z</time>
      </trkpt>
      <trkpt lat="48.78676" lon="2.12542">
        <ele>216</ele>
        <time>2019-05-12T08:40:55.000Z</time>
      </trkpt>
      <trkpt lat="48.78674" lon="2.12544">
        <ele>216</ele>
        <time>2019-05-12T08:40:56.000Z</time>
      </trkpt>
      <trkpt lat="48.7867" lon="2.12545">
        <ele>216</ele>
        <time>2019-05-12T08:41:02.000Z</time>
      </trkpt>
      <trkpt lat="48.78664" lon="2.12548">
        <ele>216</ele>
        <time>2019-05-12T08:41:05.000Z</time>
      </trkpt>
      <trkpt lat="48.78657" lon="2.12549">
        <ele>216</ele>
        <time>2019-05-12T08:41:09.000Z</time>
      </trkpt>
      <trkpt lat="48.78649" lon="2.12551">
        <ele>216</ele>
        <time>2019-05-12T08:41:17.000Z</time>
      </trkpt>
      <trkpt lat="48.78645" lon="2.12549">
        <ele>217</ele>
        <time>2019-05-12T08:41:24.000Z</time>
      </trkpt>
      <trkpt lat="48.78632" lon="2.12545">
        <ele>217</ele>
        <time>2019-05-12T08:41:36.000Z</time>
      </trkpt>
      <trkpt lat="48.78625" lon="2.12545">
        <ele>217</ele>
        <time>2019-05-12T08:41:38.000Z</time>
      </trkpt>
      <trkpt lat="48.78624" lon="2.12546">
        <ele>217</ele>
        <time>2019-05-12T08:41:39.000Z</time>
      </trkpt>
      <trkpt lat="48.78624" lon="2.12547">
        <ele>217</ele>
        <time>2019-05-12T08:41:40.000Z</time>
      </trkpt>
      <trkpt lat="48.78623" lon="2.12549">
        <ele>217</ele>
        <time>2019-05-12T08:41:42.000Z</time>
      </trkpt>
      <trkpt lat="48.78623" lon="2.1255">
        <ele>217</ele>
        <time>2019-05-12T08:41:43.000Z</time>
      </trkpt>
      <trkpt lat="48.78622" lon="2.12551">
        <ele>217</ele>
        <time>2019-05-12T08:41:51.000Z</time>
      </trkpt>
      <trkpt lat="48.78621" lon="2.1255">
        <ele>217</ele>
        <time>2019-05-12T08:42:00.000Z</time>
      </trkpt>
      <trkpt lat="48.78621" lon="2.1255">
        <ele>217</ele>
        <time>2019-05-12T08:42:00.000Z</time>
      </trkpt>
      <trkpt lat="48.78621" lon="2.12551">
        <ele>217</ele>
        <time>2019-05-12T08:42:00.000Z</time>
      </trkpt>
      <trkpt lat="48.78621" lon="2.12551">
        <ele>217</ele>
        <time>2019-05-12T08:42:00.000Z</time>
      </trkpt>
      <trkpt lat="48.7862" lon="2.12551">
        <ele>217</ele>
        <time>2019-05-12T08:42:01.000Z</time>
      </trkpt>
      <trkpt lat="48.78618" lon="2.12551">
        <ele>217</ele>
        <time>2019-05-12T08:42:04.000Z</time>
      </trkpt>
      <trkpt lat="48.78615" lon="2.12552">
        <ele>217</ele>
        <time>2019-05-12T08:42:07.000Z</time>
      </trkpt>
      <trkpt lat="48.78612" lon="2.12553">
        <ele>217</ele>
        <time>2019-05-12T08:42:10.000Z</time>
      </trkpt>
      <trkpt lat="48.78608" lon="2.12554">
        <ele>217</ele>
        <time>2019-05-12T08:42:13.000Z</time>
      </trkpt>
      <trkpt lat="48.78605" lon="2.12554">
        <ele>217</ele>
        <time>2019-05-12T08:42:15.000Z</time>
      </trkpt>
      <trkpt lat="48.78603" lon="2.12554">
        <ele>217</ele>
        <time>2019-05-12T08:42:18.000Z</time>
      </trkpt>
      <trkpt lat="48.786" lon="2.12553">
        <ele>217</ele>
        <time>2019-05-12T08:42:21.000Z</time>
      </trkpt>
      <trkpt lat="48.78597" lon="2.12552">
        <ele>217</ele>
        <time>2019-05-12T08:42:24.000Z</time>
      </trkpt>
      <trkpt lat="48.78595" lon="2.12552">
        <ele>217</ele>
        <time>2019-05-12T08:42:26.000Z</time>
      </trkpt>
      <trkpt lat="48.78593" lon="2.12551">
        <ele>217</ele>
        <time>2019-05-12T08:42:28.000Z</time>
      </trkpt>
      <trkpt lat="48.7859" lon="2.12551">
        <ele>217</ele>
        <time>2019-05-12T08:42:31.000Z</time>
      </trkpt>
      <trkpt lat="48.78589" lon="2.1255">
        <ele>217</ele>
        <time>2019-05-12T08:42:33.000Z</time>
      </trkpt>
      <trkpt lat="48.78587" lon="2.1255">
        <ele>217</ele>
        <time>2019-05-12T08:42:42.000Z</time>
      </trkpt>
      <trkpt lat="48.78587" lon="2.12549">
        <ele>217</ele>
        <time>2019-05-12T08:42:50.000Z</time>
      </trkpt>
      <trkpt lat="48.78587" lon="2.12549">
        <ele>217</ele>
        <time>2019-05-12T08:42:59.000Z</time>
      </trkpt>
      <trkpt lat="48.78587" lon="2.12549">
        <ele>217</ele>
        <time>2019-05-12T08:43:08.000Z</time>
      </trkpt>
      <trkpt lat="48.78587" lon="2.12548">
        <ele>217</ele>
        <time>2019-05-12T08:43:09.000Z</time>
      </trkpt>
      <trkpt lat="48.78586" lon="2.12547">
        <ele>217</ele>
        <time>2019-05-12T08:43:13.000Z</time>
      </trkpt>
      <trkpt lat="48.78585" lon="2.12545">
        <ele>217</ele>
        <time>2019-05-12T08:43:35.000Z</time>
      </trkpt>
      <trkpt lat="48.78584" lon="2.12543">
        <ele>217</ele>
        <time>2019-05-12T08:43:36.000Z</time>
      </trkpt>
      <trkpt lat="48.78579" lon="2.12537">
        <ele>217</ele>
        <time>2019-05-12T08:43:39.000Z</time>
      </trkpt>
      <trkpt lat="48.78572" lon="2.12532">
        <ele>217</ele>
        <time>2019-05-12T08:43:45.000Z</time>
      </trkpt>
      <trkpt lat="48.78568" lon="2.12529">
        <ele>217</ele>
        <time>2019-05-12T08:43:46.000Z</time>
      </trkpt>
      <trkpt lat="48.78558" lon="2.12524">
        <ele>217</ele>
        <time>2019-05-12T08:43:51.000Z</time>
      </trkpt>
      <trkpt lat="48.7855" lon="2.12521">
        <ele>217</ele>
        <time>2019-05-12T08:44:04.000Z</time>
      </trkpt>
      <trkpt lat="48.78548" lon="2.1252">
        <ele>217</ele>
        <time>2019-05-12T08:44:21.000Z</time>
      </trkpt>
      <trkpt lat="48.78546" lon="2.12519">
        <ele>217</ele>
        <time>2019-05-12T08:44:22.000Z</time>
      </trkpt>
      <trkpt lat="48.78545" lon="2.12519">
        <ele>217</ele>
        <time>2019-05-12T08:44:24.000Z</time>
      </trkpt>
      <trkpt lat="48.78545" lon="2.12519">
        <ele>217</ele>
        <time>2019-05-12T08:45:30.000Z</time>
      </trkpt>
      <trkpt lat="48.78544" lon="2.12519">
        <ele>216</ele>
        <time>2019-05-12T08:46:36.000Z</time>
      </trkpt>
      <trkpt lat="48.78544" lon="2.12519">
        <ele>216</ele>
        <time>2019-05-12T08:46:36.000Z</time>
      </trkpt>
      <trkpt lat="48.78544" lon="2.12519">
        <ele>216</ele>
        <time>2019-05-12T08:46:36.000Z</time>
      </trkpt>
      <trkpt lat="48.78544" lon="2.12519">
        <ele>216</ele>
        <time>2019-05-12T08:46:36.000Z</time>
      </trkpt>
      <trkpt lat="48.78544" lon="2.12519">
        <ele>216</ele>
        <time>2019-05-12T08:46:37.000Z</time>
      </trkpt>
      <trkpt lat="48.78543" lon="2.1252">
        <ele>216</ele>
        <time>2019-05-12T08:46:37.000Z</time>
      </trkpt>
      <trkpt lat="48.78543" lon="2.1252">
        <ele>216</ele>
        <time>2019-05-12T08:46:38.000Z</time>
      </trkpt>
      <trkpt lat="48.78542" lon="2.1252">
        <ele>216</ele>
        <time>2019-05-12T08:46:38.000Z</time>
      </trkpt>
      <trkpt lat="48.78542" lon="2.1252">
        <ele>216</ele>
        <time>2019-05-12T08:46:39.000Z</time>
      </trkpt>
      <trkpt lat="48.7854" lon="2.1252">
        <ele>216</ele>
        <time>2019-05-12T08:46:39.000Z</time>
      </trkpt>
      <trkpt lat="48.78539" lon="2.1252">
        <ele>216</ele>
        <time>2019-05-12T08:46:40.000Z</time>
      </trkpt>
      <trkpt lat="48.78537" lon="2.12521">
        <ele>216</ele>
        <time>2019-05-12T08:46:40.000Z</time>
      </trkpt>
      <trkpt lat="48.78534" lon="2.12521">
        <ele>216</ele>
        <time>2019-05-12T08:46:41.000Z</time>
      </trkpt>
      <trkpt lat="48.78533" lon="2.12521">
        <ele>216</ele>
        <time>2019-05-12T08:46:42.000Z</time>
      </trkpt>
      <trkpt lat="48.78531" lon="2.12521">
        <ele>216</ele>
        <time>2019-05-12T08:46:43.000Z</time>
      </trkpt>
      <trkpt lat="48.7853" lon="2.12522">
        <ele>216</ele>
        <time>2019-05-12T08:46:44.000Z</time>
      </trkpt>
      <trkpt lat="48.78529" lon="2.12522">
        <ele>216</ele>
        <time>2019-05-12T08:46:46.000Z</time>
      </trkpt>
      <trkpt lat="48.78528" lon="2.12522">
        <ele>216</ele>
        <time>2019-05-12T08:46:49.000Z</time>
      </trkpt>
      <trkpt lat="48.78528" lon="2.12522">
        <ele>216</ele>
        <time>2019-05-12T08:46:52.000Z</time>
      </trkpt>
      <trkpt lat="48.78528" lon="2.12521">
        <ele>216</ele>
        <time>2019-05-12T08:46:55.000Z</time>
      </trkpt>
      <trkpt lat="48.78527" lon="2.12521">
        <ele>217</ele>
        <time>2019-05-12T08:46:58.000Z</time>
      </trkpt>
      <trkpt lat="48.78526" lon="2.12521">
        <ele>217</ele>
        <time>2019-05-12T08:46:59.000Z</time>
      </trkpt>
      <trkpt lat="48.78515" lon="2.12517">
        <ele>217</ele>
        <time>2019-05-12T08:47:12.000Z</time>
      </trkpt>
      <trkpt lat="48.78504" lon="2.12509">
        <ele>217</ele>
        <time>2019-05-12T08:47:26.000Z</time>
      </trkpt>
      <trkpt lat="48.78497" lon="2.12505">
        <ele>217</ele>
        <time>2019-05-12T08:47:35.000Z</time>
      </trkpt>
      <trkpt lat="48.78484" lon="2.125">
        <ele>217</ele>
        <time>2019-05-12T08:47:41.000Z</time>
      </trkpt>
      <trkpt lat="48.78479" lon="2.12496">
        <ele>217</ele>
        <time>2019-05-12T08:47:47.000Z</time>
      </trkpt>
      <trkpt lat="48.78476" lon="2.12494">
        <ele>217</ele>
        <time>2019-05-12T08:47:49.000Z</time>
      </trkpt>
      <trkpt lat="48.78468" lon="2.12491">
        <ele>217</ele>
        <time>2019-05-12T08:47:51.000Z</time>
      </trkpt>
      <trkpt lat="48.78464" lon="2.12491">
        <ele>217</ele>
        <time>2019-05-12T08:47:53.000Z</time>
      </trkpt>
      <trkpt lat="48.7846" lon="2.12492">
        <ele>217</ele>
        <time>2019-05-12T08:47:56.000Z</time>
      </trkpt>
      <trkpt lat="48.78453" lon="2.12495">
        <ele>217</ele>
        <time>2019-05-12T08:48:02.000Z</time>
      </trkpt>
      <trkpt lat="48.78438" lon="2.12494">
        <ele>217</ele>
        <time>2019-05-12T08:48:26.000Z</time>
      </trkpt>
      <trkpt lat="48.78424" lon="2.12489">
        <ele>217</ele>
        <time>2019-05-12T08:48:37.000Z</time>
      </trkpt>
      <trkpt lat="48.78412" lon="2.12484">
        <ele>217</ele>
        <time>2019-05-12T08:48:51.000Z</time>
      </trkpt>
      <trkpt lat="48.78396" lon="2.12485">
        <ele>217</ele>
        <time>2019-05-12T08:49:00.000Z</time>
      </trkpt>
      <trkpt lat="48.78384" lon="2.12481">
        <ele>216</ele>
        <time>2019-05-12T08:49:15.000Z</time>
      </trkpt>
      <trkpt lat="48.78373" lon="2.12475">
        <ele>216</ele>
        <time>2019-05-12T08:49:28.000Z</time>
      </trkpt>
      <trkpt lat="48.78362" lon="2.12468">
        <ele>216</ele>
        <time>2019-05-12T08:49:38.000Z</time>
      </trkpt>
      <trkpt lat="48.78355" lon="2.12465">
        <ele>216</ele>
        <time>2019-05-12T08:49:46.000Z</time>
      </trkpt>
      <trkpt lat="48.78354" lon="2.12465">
        <ele>216</ele>
        <time>2019-05-12T08:49:49.000Z</time>
      </trkpt>
      <trkpt lat="48.78349" lon="2.12465">
        <ele>216</ele>
        <time>2019-05-12T08:49:51.000Z</time>
      </trkpt>
      <trkpt lat="48.78346" lon="2.12466">
        <ele>216</ele>
        <time>2019-05-12T08:50:41.000Z</time>
      </trkpt>
      <trkpt lat="48.78344" lon="2.12466">
        <ele>216</ele>
        <time>2019-05-12T08:50:42.000Z</time>
      </trkpt>
      <trkpt lat="48.78338" lon="2.12468">
        <ele>216</ele>
        <time>2019-05-12T08:50:47.000Z</time>
      </trkpt>
      <trkpt lat="48.78323" lon="2.1247">
        <ele>216</ele>
        <time>2019-05-12T08:50:52.000Z</time>
      </trkpt>
      <trkpt lat="48.78319" lon="2.12468">
        <ele>216</ele>
        <time>2019-05-12T08:50:59.000Z</time>
      </trkpt>
      <trkpt lat="48.78318" lon="2.12465">
        <ele>216</ele>
        <time>2019-05-12T08:51:06.000Z</time>
      </trkpt>
      <trkpt lat="48.78317" lon="2.12464">
        <ele>216</ele>
        <time>2019-05-12T08:51:10.000Z</time>
      </trkpt>
      <trkpt lat="48.78317" lon="2.12463">
        <ele>216</ele>
        <time>2019-05-12T08:51:14.000Z</time>
      </trkpt>
      <trkpt lat="48.78316" lon="2.12462">
        <ele>216</ele>
        <time>2019-05-12T08:51:18.000Z</time>
      </trkpt>
      <trkpt lat="48.78316" lon="2.12462">
        <ele>216</ele>
        <time>2019-05-12T08:51:22.000Z</time>
      </trkpt>
      <trkpt lat="48.78315" lon="2.12461">
        <ele>216</ele>
        <time>2019-05-12T08:51:22.000Z</time>
      </trkpt>
      <trkpt lat="48.78315" lon="2.1246">
        <ele>216</ele>
        <time>2019-05-12T08:51:22.000Z</time>
      </trkpt>
      <trkpt lat="48.78315" lon="2.1246">
        <ele>216</ele>
        <time>2019-05-12T08:51:23.000Z</time>
      </trkpt>
      <trkpt lat="48.78315" lon="2.12459">
        <ele>216</ele>
        <time>2019-05-12T08:51:23.000Z</time>
      </trkpt>
      <trkpt lat="48.78313" lon="2.12458">
        <ele>216</ele>
        <time>2019-05-12T08:51:25.000Z</time>
      </trkpt>
      <trkpt lat="48.7831" lon="2.12455">
        <ele>216</ele>
        <time>2019-05-12T08:51:26.000Z</time>
      </trkpt>
      <trkpt lat="48.78308" lon="2.12452">
        <ele>216</ele>
        <time>2019-05-12T08:51:28.000Z</time>
      </trkpt>
      <trkpt lat="48.78305" lon="2.1245">
        <ele>216</ele>
        <time>2019-05-12T08:51:30.000Z</time>
      </trkpt>
      <trkpt lat="48.78303" lon="2.12449">
        <ele>216</ele>
        <time>2019-05-12T08:51:32.000Z</time>
      </trkpt>
      <trkpt lat="48.78302" lon="2.12448">
        <ele>216</ele>
        <time>2019-05-12T08:51:34.000Z</time>
      </trkpt>
      <trkpt lat="48.78302" lon="2.12448">
        <ele>216</ele>
        <time>2019-05-12T08:51:36.000Z</time>
      </trkpt>
      <trkpt lat="48.78301" lon="2.12448">
        <ele>216</ele>
        <time>2019-05-12T08:51:39.000Z</time>
      </trkpt>
      <trkpt lat="48.78301" lon="2.12448">
        <ele>216</ele>
        <time>2019-05-12T08:51:40.000Z</time>
      </trkpt>
      <trkpt lat="48.783" lon="2.12448">
        <ele>216</ele>
        <time>2019-05-12T08:51:40.000Z</time>
      </trkpt>
      <trkpt lat="48.78299" lon="2.12448">
        <ele>216</ele>
        <time>2019-05-12T08:51:41.000Z</time>
      </trkpt>
      <trkpt lat="48.78299" lon="2.12448">
        <ele>216</ele>
        <time>2019-05-12T08:51:42.000Z</time>
      </trkpt>
      <trkpt lat="48.78284" lon="2.12447">
        <ele>216</ele>
        <time>2019-05-12T08:51:45.000Z</time>
      </trkpt>
      <trkpt lat="48.7827" lon="2.12446">
        <ele>216</ele>
        <time>2019-05-12T08:51:51.000Z</time>
      </trkpt>
      <trkpt lat="48.78254" lon="2.12441">
        <ele>216</ele>
        <time>2019-05-12T08:52:03.000Z</time>
      </trkpt>
      <trkpt lat="48.78239" lon="2.12431">
        <ele>215</ele>
        <time>2019-05-12T08:52:27.000Z</time>
      </trkpt>
      <trkpt lat="48.78236" lon="2.1243">
        <ele>215</ele>
        <time>2019-05-12T08:52:35.000Z</time>
      </trkpt>
      <trkpt lat="48.78234" lon="2.12429">
        <ele>215</ele>
        <time>2019-05-12T08:52:44.000Z</time>
      </trkpt>
      <trkpt lat="48.78233" lon="2.12428">
        <ele>215</ele>
        <time>2019-05-12T08:52:45.000Z</time>
      </trkpt>
      <trkpt lat="48.78223" lon="2.12422">
        <ele>215</ele>
        <time>2019-05-12T08:52:55.000Z</time>
      </trkpt>
      <trkpt lat="48.78219" lon="2.12421">
        <ele>215</ele>
        <time>2019-05-12T08:52:59.000Z</time>
      </trkpt>
      <trkpt lat="48.78212" lon="2.1242">
        <ele>215</ele>
        <time>2019-05-12T08:53:04.000Z</time>
      </trkpt>
      <trkpt lat="48.78209" lon="2.1242">
        <ele>215</ele>
        <time>2019-05-12T08:53:07.000Z</time>
      </trkpt>
      <trkpt lat="48.78209" lon="2.1242">
        <ele>214</ele>
        <time>2019-05-12T08:55:19.000Z</time>
      </trkpt>
      <trkpt lat="48.78209" lon="2.1242">
        <ele>214</ele>
        <time>2019-05-12T08:55:20.000Z</time>
      </trkpt>
      <trkpt lat="48.78202" lon="2.12408">
        <ele>214</ele>
        <time>2019-05-12T08:55:32.000Z</time>
      </trkpt>
      <trkpt lat="48.78199" lon="2.124">
        <ele>214</ele>
        <time>2019-05-12T08:55:37.000Z</time>
      </trkpt>
      <trkpt lat="48.78197" lon="2.12396">
        <ele>214</ele>
        <time>2019-05-12T08:55:38.000Z</time>
      </trkpt>
      <trkpt lat="48.78194" lon="2.12392">
        <ele>214</ele>
        <time>2019-05-12T08:55:46.000Z</time>
      </trkpt>
      <trkpt lat="48.78191" lon="2.1239">
        <ele>214</ele>
        <time>2019-05-12T08:55:49.000Z</time>
      </trkpt>
      <trkpt lat="48.7818" lon="2.12385">
        <ele>214</ele>
        <time>2019-05-12T08:55:51.000Z</time>
      </trkpt>
      <trkpt lat="48.78175" lon="2.12383">
        <ele>214</ele>
        <time>2019-05-12T08:55:53.000Z</time>
      </trkpt>
      <trkpt lat="48.78172" lon="2.12383">
        <ele>214</ele>
        <time>2019-05-12T08:55:59.000Z</time>
      </trkpt>
      <trkpt lat="48.78166" lon="2.12383">
        <ele>214</ele>
        <time>2019-05-12T08:56:10.000Z</time>
      </trkpt>
      <trkpt lat="48.78163" lon="2.12384">
        <ele>214</ele>
        <time>2019-05-12T08:56:13.000Z</time>
      </trkpt>
      <trkpt lat="48.78159" lon="2.12384">
        <ele>214</ele>
        <time>2019-05-12T08:56:15.000Z</time>
      </trkpt>
      <trkpt lat="48.78159" lon="2.12384">
        <ele>214</ele>
        <time>2019-05-12T08:56:19.000Z</time>
      </trkpt>
      <trkpt lat="48.78156" lon="2.12384">
        <ele>214</ele>
        <time>2019-05-12T08:56:22.000Z</time>
      </trkpt>
      <trkpt lat="48.78147" lon="2.12387">
        <ele>214</ele>
        <time>2019-05-12T08:56:24.000Z</time>
      </trkpt>
      <trkpt lat="48.78142" lon="2.1239">
        <ele>214</ele>
        <time>2019-05-12T08:56:26.000Z</time>
      </trkpt>
      <trkpt lat="48.78131" lon="2.12401">
        <ele>213</ele>
        <time>2019-05-12T08:56:33.000Z</time>
      </trkpt>
      <trkpt lat="48.78122" lon="2.12405">
        <ele>213</ele>
        <time>2019-05-12T08:56:44.000Z</time>
      </trkpt>
      <trkpt lat="48.78119" lon="2.12407">
        <ele>213</ele>
        <time>2019-05-12T08:56:48.000Z</time>
      </trkpt>
      <trkpt lat="48.78116" lon="2.12409">
        <ele>213</ele>
        <time>2019-05-12T08:56:50.000Z</time>
      </trkpt>
      <trkpt lat="48.78105" lon="2.12413">
        <ele>213</ele>
        <time>2019-05-12T08:56:56.000Z</time>
      </trkpt>
      <trkpt lat="48.78101" lon="2.12412">
        <ele>213</ele>
        <time>2019-05-12T08:57:02.000Z</time>
      </trkpt>
      <trkpt lat="48.78101" lon="2.12412">
        <ele>213</ele>
        <time>2019-05-12T08:57:04.000Z</time>
      </trkpt>
      <trkpt lat="48.78093" lon="2.12412">
        <ele>213</ele>
        <time>2019-05-12T08:57:06.000Z</time>
      </trkpt>
      <trkpt lat="48.78079" lon="2.12416">
        <ele>213</ele>
        <time>2019-05-12T08:57:12.000Z</time>
      </trkpt>
      <trkpt lat="48.78073" lon="2.12421">
        <ele>213</ele>
        <time>2019-05-12T08:57:21.000Z</time>
      </trkpt>
      <trkpt lat="48.7806" lon="2.12428">
        <ele>213</ele>
        <time>2019-05-12T08:57:29.000Z</time>
      </trkpt>
      <trkpt lat="48.78046" lon="2.12428">
        <ele>213</ele>
        <time>2019-05-12T08:57:44.000Z</time>
      </trkpt>
      <trkpt lat="48.78045" lon="2.12429">
        <ele>213</ele>
        <time>2019-05-12T08:57:45.000Z</time>
      </trkpt>
      <trkpt lat="48.78043" lon="2.12431">
        <ele>213</ele>
        <time>2019-05-12T08:57:46.000Z</time>
      </trkpt>
      <trkpt lat="48.78042" lon="2.12433">
        <ele>213</ele>
        <time>2019-05-12T08:57:47.000Z</time>
      </trkpt>
      <trkpt lat="48.78042" lon="2.12435">
        <ele>213</ele>
        <time>2019-05-12T08:57:49.000Z</time>
      </trkpt>
      <trkpt lat="48.78041" lon="2.12436">
        <ele>213</ele>
        <time>2019-05-12T08:57:49.000Z</time>
      </trkpt>
      <trkpt lat="48.7804" lon="2.12438">
        <ele>213</ele>
        <time>2019-05-12T08:57:50.000Z</time>
      </trkpt>
      <trkpt lat="48.78039" lon="2.12439">
        <ele>213</ele>
        <time>2019-05-12T08:57:50.000Z</time>
      </trkpt>
      <trkpt lat="48.78038" lon="2.1244">
        <ele>213</ele>
        <time>2019-05-12T08:57:51.000Z</time>
      </trkpt>
      <trkpt lat="48.78037" lon="2.12441">
        <ele>213</ele>
        <time>2019-05-12T08:57:52.000Z</time>
      </trkpt>
      <trkpt lat="48.78035" lon="2.12443">
        <ele>213</ele>
        <time>2019-05-12T08:57:53.000Z</time>
      </trkpt>
      <trkpt lat="48.78034" lon="2.12445">
        <ele>213</ele>
        <time>2019-05-12T08:57:55.000Z</time>
      </trkpt>
      <trkpt lat="48.78032" lon="2.12446">
        <ele>213</ele>
        <time>2019-05-12T08:57:56.000Z</time>
      </trkpt>
      <trkpt lat="48.7803" lon="2.12448">
        <ele>213</ele>
        <time>2019-05-12T08:57:57.000Z</time>
      </trkpt>
      <trkpt lat="48.78029" lon="2.12449">
        <ele>213</ele>
        <time>2019-05-12T08:57:59.000Z</time>
      </trkpt>
      <trkpt lat="48.78027" lon="2.12451">
        <ele>213</ele>
        <time>2019-05-12T08:58:01.000Z</time>
      </trkpt>
      <trkpt lat="48.78025" lon="2.12452">
        <ele>213</ele>
        <time>2019-05-12T08:58:03.000Z</time>
      </trkpt>
      <trkpt lat="48.78023" lon="2.12453">
        <ele>213</ele>
        <time>2019-05-12T08:58:04.000Z</time>
      </trkpt>
      <trkpt lat="48.78021" lon="2.12453">
        <ele>213</ele>
        <time>2019-05-12T08:58:05.000Z</time>
      </trkpt>
      <trkpt lat="48.7802" lon="2.12454">
        <ele>213</ele>
        <time>2019-05-12T08:58:07.000Z</time>
      </trkpt>
      <trkpt lat="48.78019" lon="2.12454">
        <ele>213</ele>
        <time>2019-05-12T08:58:08.000Z</time>
      </trkpt>
      <trkpt lat="48.78017" lon="2.12455">
        <ele>213</ele>
        <time>2019-05-12T08:58:09.000Z</time>
      </trkpt>
      <trkpt lat="48.78016" lon="2.12455">
        <ele>213</ele>
        <time>2019-05-12T08:58:10.000Z</time>
      </trkpt>
      <trkpt lat="48.78015" lon="2.12456">
        <ele>213</ele>
        <time>2019-05-12T08:58:11.000Z</time>
      </trkpt>
      <trkpt lat="48.78013" lon="2.12456">
        <ele>213</ele>
        <time>2019-05-12T08:58:12.000Z</time>
      </trkpt>
    </trkseg>
  </trk>
</gpx>